Time;durP1;ratioP1;P1;durP2;ratioP2;P2;SDS_P1;SDS_P2;PMS_P1;PMS_P2;Temp;Humidity;BMP_temperature;BMP_pressure;BME280_temperature;BME280_humidity;BME280_pressure;Samples;Min_cycle;Max_cycle;Signal;HPM_P1;HPM_P2
2022/12/26 00:02:26;;;;;;;96.00;50.30;;;;;;;;;;4365774;32;318764;-86
2022/12/26 00:04:53;;;;;;;105.60;59.83;;;;;;;;;;4375697;32;318342;-86
2022/12/26 00:07:21;;;;;;;91.87;54.10;;;;;;;;;;4364345;32;319287;-86
2022/12/26 00:09:48;;;;;;;83.30;49.27;;;;;;;;;;4374972;32;317766;-86
2022/12/26 00:12:15;;;;;;;84.23;50.33;;;;;;;;;;4364430;32;317809;-87
2022/12/26 00:14:41;;;;;;;113.70;65.90;;;;;;;;;;4375136;32;358327;-90
2022/12/26 00:17:08;;;;;;;137.20;77.10;;;;;;;;;;4368339;32;319880;-88
2022/12/26 00:19:35;;;;;;;168.93;87.03;;;;;;;;;;4378869;32;319468;-88
2022/12/26 00:22:02;;;;;;;187.43;96.30;;;;;;;;;;4376917;32;319272;-88
2022/12/26 00:24:30;;;;;;;148.10;82.43;;;;;;;;;;4364031;32;420477;-88
2022/12/26 00:26:57;;;;;;;144.13;78.37;;;;;;;;;;4377199;32;319205;-89
2022/12/26 00:29:23;;;;;;;139.03;78.17;;;;;;;;;;4365883;32;319096;-89
2022/12/26 00:31:50;;;;;;;145.53;84.27;;;;;;;;;;4376470;32;318753;-89
2022/12/26 00:34:17;;;;;;;161.87;88.30;;;;;;;;;;4367050;32;319304;-87
2022/12/26 00:36:44;;;;;;;153.10;88.23;;;;;;;;;;4378398;32;318608;-90
2022/12/26 00:39:11;;;;;;;165.70;97.47;;;;;;;;;;4369403;32;319293;-90
2022/12/26 00:41:39;;;;;;;239.27;126.97;;;;;;;;;;4376868;32;319202;-89
2022/12/26 00:44:06;;;;;;;257.17;138.77;;;;;;;;;;4363736;32;345631;-90
2022/12/26 00:46:32;;;;;;;271.27;147.57;;;;;;;;;;4375832;32;320298;-90
2022/12/26 00:48:59;;;;;;;248.60;139.13;;;;;;;;;;4376327;32;319992;-90
2022/12/26 00:51:26;;;;;;;254.43;138.47;;;;;;;;;;4368897;32;320286;-90
2022/12/26 00:53:53;;;;;;;250.70;141.73;;;;;;;;;;4376356;32;319784;-89
2022/12/26 00:56:20;;;;;;;225.87;134.67;;;;;;;;;;4364943;32;320773;-91
2022/12/26 00:58:48;;;;;;;231.70;132.47;;;;;;;;;;4374759;32;319914;-90
2022/12/26 01:01:17;;;;;;;215.07;123.17;;;;;;;;;;4364161;32;320474;-89
2022/12/26 01:03:45;;;;;;;209.83;119.80;;;;;;;;;;4374872;32;321055;-89
2022/12/26 01:06:13;;;;;;;168.20;97.23;;;;;;;;;;4365518;32;319825;-89
2022/12/26 01:08:40;;;;;;;140.10;85.67;;;;;;;;;;4375326;32;319339;-90
2022/12/26 01:11:09;;;;;;;148.43;84.60;;;;;;;;;;4364492;32;318527;-90
2022/12/26 01:13:36;;;;;;;146.93;80.77;;;;;;;;;;4376235;32;318940;-89
2022/12/26 01:16:06;;;;;;;133.63;74.80;;;;;;;;;;4375955;32;318830;-88
2022/12/26 01:18:33;;;;;;;119.57;68.00;;;;;;;;;;4362168;32;418505;-88
2022/12/26 01:21:03;;;;;;;112.27;62.07;;;;;;;;;;4373984;32;318561;-89
2022/12/26 01:23:30;;;;;;;104.60;55.97;;;;;;;;;;4361674;32;417167;-90
2022/12/26 01:25:56;;;;;;;108.63;62.57;;;;;;;;;;4376571;32;318535;-89
2022/12/26 01:28:23;;;;;;;122.77;68.23;;;;;;;;;;4366137;32;319815;-88
2022/12/26 01:30:50;;;;;;;109.60;60.83;;;;;;;;;;4374843;32;319367;-88
2022/12/26 01:33:18;;;;;;;115.80;62.77;;;;;;;;;;4364331;32;319377;-88
2022/12/26 01:35:52;;;;;;;116.10;63.77;;;;;;;;;;4375411;32;319528;-90
2022/12/26 01:38:19;;;;;;;117.07;63.83;;;;;;;;;;4365443;32;319624;-89
2022/12/26 01:40:46;;;;;;;111.27;60.33;;;;;;;;;;4374839;32;318388;-89
2022/12/26 01:43:15;;;;;;;109.40;60.30;;;;;;;;;;4365754;32;319036;-90
2022/12/26 01:45:45;;;;;;;104.80;55.60;;;;;;;;;;4374882;32;319457;-90
2022/12/26 01:48:22;;;;;;;102.83;61.17;;;;;;;;;;4364445;32;318627;-91
2022/12/26 01:50:55;;;;;;;114.20;63.33;;;;;;;;;;4374039;32;319397;-91
2022/12/26 01:53:28;;;;;;;120.33;65.57;;;;;;;;;;4364885;32;319384;-91
2022/12/26 01:55:59;;;;;;;111.73;66.53;;;;;;;;;;4373212;32;318622;-90
2022/12/26 01:58:31;;;;;;;109.43;64.10;;;;;;;;;;4363637;32;320916;-91
2022/12/26 02:00:59;;;;;;;105.07;59.60;;;;;;;;;;4373623;32;318630;-90
2022/12/26 02:06:13;;;;;;;92.37;53.93;;;;;;;;;;4364808;32;318345;-90
2022/12/26 02:08:41;;;;;;;118.37;61.33;;;;;;;;;;4374700;32;317650;-90
2022/12/26 02:11:14;;;;;;;111.47;57.07;;;;;;;;;;4365025;32;319432;-90
2022/12/26 02:13:41;;;;;;;87.17;47.00;;;;;;;;;;4375353;32;319376;-90
2022/12/26 02:16:12;;;;;;;75.13;44.70;;;;;;;;;;4362461;32;317994;-89
2022/12/26 02:18:40;;;;;;;198.27;72.10;;;;;;;;;;4372781;32;345937;-91
2022/12/26 02:21:34;;;;;;;190.83;74.47;;;;;;;;;;4365226;32;319403;-91
2022/12/26 02:24:34;;;;;;;215.70;78.47;;;;;;;;;;4372926;32;319420;-89
2022/12/26 02:27:22;;;;;;;118.50;53.40;;;;;;;;;;4369975;32;419357;-88
2022/12/26 02:30:05;;;;;;;97.90;44.80;;;;;;;;;;4360720;32;419437;-88
2022/12/26 02:33:05;;;;;;;81.30;39.63;;;;;;;;;;4361711;32;417602;-88
2022/12/26 02:35:45;;;;;;;65.37;36.30;;;;;;;;;;4350622;32;417740;-89
2022/12/26 02:38:23;;;;;;;57.30;33.33;;;;;;;;;;4363104;32;318045;-88
2022/12/26 02:41:00;;;;;;;60.87;33.43;;;;;;;;;;4373015;32;317359;-89
2022/12/26 02:43:33;;;;;;;82.10;40.50;;;;;;;;;;4363965;32;318229;-89
2022/12/26 02:48:58;;;;;;;67.03;37.20;;;;;;;;;;4360089;32;389621;-89
2022/12/26 03:14:15;;;;;;;126.53;63.73;;;;;;;;;;4364230;32;319392;-90
2022/12/26 03:19:32;;;;;;;131.87;67.10;;;;;;;;;;4363646;32;319472;-90
2022/12/26 03:22:29;;;;;;;110.67;56.63;;;;;;;;;;4373453;32;318535;-91
2022/12/26 03:27:34;;;;;;;109.47;55.77;;;;;;;;;;4362501;32;390568;-92
2022/12/26 03:32:45;;;;;;;90.70;45.23;;;;;;;;;;4361718;32;389989;-89
2022/12/26 03:35:13;;;;;;;76.00;40.00;;;;;;;;;;4362174;32;318546;-90
2022/12/26 03:37:49;;;;;;;104.47;58.43;;;;;;;;;;4374661;32;317816;-90
2022/12/26 04:20:48;;;;;;;54.97;30.57;;;;;;;;;;4360517;32;388893;-91
2022/12/26 04:45:50;;;;;;;169.67;81.57;;;;;;;;;;4367741;32;389879;-93
2022/12/26 04:51:01;;;;;;;147.17;77.80;;;;;;;;;;4378990;32;359462;-93
2022/12/26 04:53:28;;;;;;;144.20;78.67;;;;;;;;;;4368571;32;319083;-93
2022/12/26 04:55:54;;;;;;;151.00;79.97;;;;;;;;;;4378209;32;318475;-93
2022/12/26 04:58:24;;;;;;;135.33;73.40;;;;;;;;;;4368846;32;319636;-94
2022/12/26 05:09:32;;;;;;;165.80;89.07;;;;;;;;;;4378872;32;318426;-93
2022/12/26 05:11:55;;;;;;;201.20;93.70;;;;;;;;;;4377566;32;319610;-95
2022/12/26 05:14:22;;;;;;;211.23;95.87;;;;;;;;;;4367263;32;318955;-94
2022/12/26 05:30:43;;;;;;;178.83;90.10;;;;;;;;;;4370156;32;389874;-94
2022/12/26 05:35:55;;;;;;;147.67;67.00;;;;;;;;;;4382799;32;319057;-90
2022/12/26 05:38:22;;;;;;;159.33;75.13;;;;;;;;;;4375289;32;318383;-91
2022/12/26 05:40:49;;;;;;;148.83;72.50;;;;;;;;;;4383707;32;318956;-91
2022/12/26 05:43:17;;;;;;;172.00;82.97;;;;;;;;;;4372412;32;345387;-92
2022/12/26 05:45:44;;;;;;;184.23;90.43;;;;;;;;;;4375337;32;326594;-89
2022/12/26 05:48:12;;;;;;;198.93;96.80;;;;;;;;;;4365658;32;318679;-88
2022/12/26 05:50:39;;;;;;;184.20;92.07;;;;;;;;;;4374633;32;323882;-89
2022/12/26 05:53:06;;;;;;;179.13;91.40;;;;;;;;;;4368053;32;319106;-89
2022/12/26 05:55:32;;;;;;;182.23;97.53;;;;;;;;;;4378242;32;319194;-89
2022/12/26 05:58:00;;;;;;;169.97;93.07;;;;;;;;;;4374498;32;318417;-88
2022/12/26 06:00:28;;;;;;;142.60;80.83;;;;;;;;;;4365248;32;318646;-89
2022/12/26 06:02:54;;;;;;;98.80;59.60;;;;;;;;;;4376362;32;318462;-88
2022/12/26 06:05:22;;;;;;;113.00;65.00;;;;;;;;;;4367988;32;318116;-88
2022/12/26 06:07:49;;;;;;;105.10;58.00;;;;;;;;;;4376306;32;319413;-88
2022/12/26 06:10:16;;;;;;;139.70;74.50;;;;;;;;;;4363911;32;319315;-87
2022/12/26 06:12:43;;;;;;;140.57;78.53;;;;;;;;;;4373123;32;318577;-87
2022/12/26 06:15:11;;;;;;;167.00;87.73;;;;;;;;;;4363065;32;318824;-86
2022/12/26 06:17:38;;;;;;;167.73;85.63;;;;;;;;;;4372263;32;341081;-87
2022/12/26 06:20:06;;;;;;;208.97;109.10;;;;;;;;;;4364397;32;319459;-90
2022/12/26 06:22:35;;;;;;;208.73;107.50;;;;;;;;;;4374571;32;319785;-91
2022/12/26 06:25:01;;;;;;;216.27;109.03;;;;;;;;;;4374942;32;320115;-91
2022/12/26 06:27:28;;;;;;;214.90;112.50;;;;;;;;;;4364657;32;320140;-91
2022/12/26 06:29:55;;;;;;;219.63;112.30;;;;;;;;;;4374017;32;325272;-90
2022/12/26 06:32:22;;;;;;;220.47;109.07;;;;;;;;;;4364279;32;320359;-89
2022/12/26 06:34:49;;;;;;;199.00;104.73;;;;;;;;;;4374287;32;319606;-92
2022/12/26 06:37:16;;;;;;;216.17;102.37;;;;;;;;;;4365956;32;320158;-91
2022/12/26 06:39:44;;;;;;;200.07;103.00;;;;;;;;;;4376204;32;320242;-89
2022/12/26 06:42:11;;;;;;;202.23;107.53;;;;;;;;;;4365262;32;324016;-90
2022/12/26 06:44:38;;;;;;;203.70;101.57;;;;;;;;;;4376042;32;320296;-90
2022/12/26 06:47:04;;;;;;;206.87;108.20;;;;;;;;;;4366286;32;319876;-90
2022/12/26 06:49:31;;;;;;;209.47;112.57;;;;;;;;;;4375802;32;319406;-89
2022/12/26 06:51:58;;;;;;;197.30;110.07;;;;;;;;;;4374380;32;356682;-88
2022/12/26 06:54:25;;;;;;;183.07;105.90;;;;;;;;;;4365362;32;320330;-91
2022/12/26 06:56:53;;;;;;;186.47;106.37;;;;;;;;;;4374617;32;320608;-90
2022/12/26 06:59:19;;;;;;;195.03;106.63;;;;;;;;;;4364691;32;319653;-89
2022/12/26 07:01:46;;;;;;;228.60;121.17;;;;;;;;;;4372143;32;319899;-89
2022/12/26 07:04:13;;;;;;;334.07;180.70;;;;;;;;;;4363223;32;320462;-88
2022/12/26 07:06:40;;;;;;;353.80;184.27;;;;;;;;;;4372092;32;319556;-87
2022/12/26 07:09:09;;;;;;;366.13;194.07;;;;;;;;;;4360787;32;349244;-89
2022/12/26 07:11:38;;;;;;;387.80;201.40;;;;;;;;;;4371570;32;327551;-88
2022/12/26 07:14:07;;;;;;;380.60;200.70;;;;;;;;;;4362738;32;320399;-88
2022/12/26 07:16:34;;;;;;;385.73;205.53;;;;;;;;;;4373034;32;319524;-92
2022/12/26 07:19:02;;;;;;;378.97;203.03;;;;;;;;;;4372416;32;319604;-90
2022/12/26 07:21:29;;;;;;;326.83;180.63;;;;;;;;;;4363017;32;320148;-90
2022/12/26 07:23:56;;;;;;;319.27;172.60;;;;;;;;;;4373992;32;318303;-93
2022/12/26 07:26:23;;;;;;;337.97;178.13;;;;;;;;;;4364811;32;320850;-90
2022/12/26 07:28:53;;;;;;;314.13;165.30;;;;;;;;;;4372592;32;320061;-91
2022/12/26 07:31:21;;;;;;;288.27;157.40;;;;;;;;;;4363421;32;319810;-89
2022/12/26 07:33:48;;;;;;;275.53;147.27;;;;;;;;;;4372044;32;346442;-89
2022/12/26 07:36:15;;;;;;;285.37;150.37;;;;;;;;;;4361891;32;320480;-90
2022/12/26 07:38:42;;;;;;;287.07;165.97;;;;;;;;;;4373837;32;319478;-89
2022/12/26 07:43:50;;;;;;;286.63;165.80;;;;;;;;;;4375011;32;320320;-92
2022/12/26 07:46:17;;;;;;;323.50;173.20;;;;;;;;;;4363389;32;319519;-88
2022/12/26 07:48:45;;;;;;;324.80;179.60;;;;;;;;;;4373999;32;319556;-90
2022/12/26 07:51:12;;;;;;;321.13;177.53;;;;;;;;;;4362891;32;320602;-90
2022/12/26 07:53:39;;;;;;;313.87;181.10;;;;;;;;;;4374134;32;321103;-90
2022/12/26 07:56:07;;;;;;;352.97;199.07;;;;;;;;;;4364105;32;320279;-90
2022/12/26 07:58:33;;;;;;;353.20;202.00;;;;;;;;;;4373316;32;319554;-90
2022/12/26 08:01:01;;;;;;;347.43;198.97;;;;;;;;;;4373469;32;319557;-94
2022/12/26 08:03:28;;;;;;;373.17;212.53;;;;;;;;;;4365043;32;320094;-94
2022/12/26 08:06:00;;;;;;;337.63;192.97;;;;;;;;;;4373560;32;351586;-94
2022/12/26 08:08:27;;;;;;;340.83;198.77;;;;;;;;;;4361885;32;319326;-91
2022/12/26 08:10:59;;;;;;;319.33;190.13;;;;;;;;;;4393974;32;319577;-89
2022/12/26 08:13:26;;;;;;;328.20;190.43;;;;;;;;;;4370138;32;319453;-90
2022/12/26 08:15:53;;;;;;;347.33;197.93;;;;;;;;;;4380031;32;319752;-93
2022/12/26 08:18:19;;;;;;;165.90;96.77;;;;;;;;;;4365906;32;320283;-89
2022/12/26 08:20:46;;;;;;;252.70;135.60;;;;;;;;;;4375158;32;329796;-89
2022/12/26 08:23:14;;;;;;;474.20;288.63;;;;;;;;;;4366789;32;337394;-89
2022/12/26 08:25:41;;;;;;;421.83;252.33;;;;;;;;;;4375902;32;319468;-90
2022/12/26 08:28:08;;;;;;;427.30;251.17;;;;;;;;;;4364784;32;377676;-89
2022/12/26 08:30:35;;;;;;;394.77;231.67;;;;;;;;;;4375715;32;320043;-90
2022/12/26 08:33:02;;;;;;;323.97;188.33;;;;;;;;;;4375576;32;319814;-90
2022/12/26 08:35:29;;;;;;;286.33;162.43;;;;;;;;;;4366969;32;320083;-90
2022/12/26 08:37:55;;;;;;;305.37;168.93;;;;;;;;;;4375331;32;320532;-90
2022/12/26 08:40:23;;;;;;;273.30;158.83;;;;;;;;;;4364433;32;330764;-93
2022/12/26 08:42:50;;;;;;;336.30;184.83;;;;;;;;;;4376467;32;319887;-93
2022/12/26 08:45:17;;;;;;;271.70;157.93;;;;;;;;;;4365455;32;347822;-91
2022/12/26 08:47:44;;;;;;;241.87;135.53;;;;;;;;;;4375409;32;341435;-91
2022/12/26 08:50:11;;;;;;;237.40;134.03;;;;;;;;;;4367239;32;319710;-92
2022/12/26 08:52:38;;;;;;;204.03;118.20;;;;;;;;;;4368748;32;320038;-91
2022/12/26 08:55:06;;;;;;;193.30;110.00;;;;;;;;;;4366105;32;319966;-90
2022/12/26 08:57:34;;;;;;;140.53;83.70;;;;;;;;;;4373361;32;320490;-88
2022/12/26 09:00:01;;;;;;;148.77;86.53;;;;;;;;;;4375170;32;319465;-88
2022/12/26 09:02:27;;;;;;;129.30;79.53;;;;;;;;;;4364388;32;319829;-85
2022/12/26 09:04:54;;;;;;;125.40;73.43;;;;;;;;;;4375527;32;319326;-86
2022/12/26 09:07:21;;;;;;;109.87;65.23;;;;;;;;;;4365715;32;319150;-84
2022/12/26 09:09:48;;;;;;;182.03;103.50;;;;;;;;;;4376418;32;318625;-86
2022/12/26 09:12:15;;;;;;;68.97;42.13;;;;;;;;;;4365257;32;319718;-84
2022/12/26 09:14:43;;;;;;;72.30;40.77;;;;;;;;;;4374818;32;317331;-85
2022/12/26 09:17:10;;;;;;;78.87;42.93;;;;;;;;;;4364258;32;318468;-84
2022/12/26 09:19:37;;;;;;;75.07;47.37;;;;;;;;;;4374153;32;327365;-85
2022/12/26 09:24:48;;;;;;;61.10;36.67;;;;;;;;;;4360630;32;387660;-84
2022/12/26 09:27:15;;;;;;;576.17;224.37;;;;;;;;;;4364149;32;318365;-85
2022/12/26 09:29:43;;;;;;;92.70;53.80;;;;;;;;;;4374429;32;320378;-85
2022/12/26 09:32:10;;;;;;;70.53;40.53;;;;;;;;;;4364334;32;318238;-87
2022/12/26 09:34:37;;;;;;;92.70;51.17;;;;;;;;;;4373133;32;318175;-86
2022/12/26 09:37:03;;;;;;;153.53;67.57;;;;;;;;;;4373675;32;318361;-87
2022/12/26 09:39:30;;;;;;;83.67;48.10;;;;;;;;;;4361309;32;418366;-86
2022/12/26 09:42:13;;;;;;;74.33;48.13;;;;;;;;;;4375937;32;318408;-87
2022/12/26 09:44:48;;;;;;;85.43;47.30;;;;;;;;;;4362420;32;416705;-87
2022/12/26 09:47:29;;;;;;;102.83;59.17;;;;;;;;;;4363026;32;357107;-86
2022/12/26 09:50:00;;;;;;;82.33;50.53;;;;;;;;;;4374379;32;319493;-85
2022/12/26 09:52:34;;;;;;;64.13;36.53;;;;;;;;;;4363694;32;317876;-85
2022/12/26 09:55:05;;;;;;;59.70;39.03;;;;;;;;;;4374677;32;318846;-85
2022/12/26 09:57:38;;;;;;;56.73;37.37;;;;;;;;;;4361166;32;417399;-86
2022/12/26 10:00:16;;;;;;;65.27;39.13;;;;;;;;;;4369792;32;317765;-86
2022/12/26 10:02:43;;;;;;;63.60;38.00;;;;;;;;;;4373661;32;317829;-84
2022/12/26 10:05:13;;;;;;;75.67;44.90;;;;;;;;;;4362474;32;317746;-86
2022/12/26 10:07:46;;;;;;;68.90;42.20;;;;;;;;;;4373591;32;318685;-86
2022/12/26 10:10:18;;;;;;;62.37;41.20;;;;;;;;;;4362736;32;317839;-85
2022/12/26 10:12:56;;;;;;;59.77;36.30;;;;;;;;;;4373786;32;318624;-86
2022/12/26 10:15:44;;;;;;;57.87;35.17;;;;;;;;;;4362936;32;318577;-85
2022/12/26 10:18:22;;;;;;;150.20;66.17;;;;;;;;;;4363269;32;318542;-86
2022/12/26 10:21:07;;;;;;;65.00;39.07;;;;;;;;;;4374047;32;318806;-85
2022/12/26 10:23:36;;;;;;;54.90;33.97;;;;;;;;;;4361176;32;418359;-86
2022/12/26 10:26:14;;;;;;;48.63;32.40;;;;;;;;;;4371927;32;318510;-85
2022/12/26 10:28:44;;;;;;;54.80;34.00;;;;;;;;;;4360151;32;418394;-84
2022/12/26 10:31:19;;;;;;;48.97;31.80;;;;;;;;;;4360065;32;356365;-85
2022/12/26 10:33:49;;;;;;;57.37;35.27;;;;;;;;;;4371922;32;317794;-86
2022/12/26 10:36:26;;;;;;;66.33;40.40;;;;;;;;;;4361318;32;318395;-86
2022/12/26 10:38:55;;;;;;;99.17;58.30;;;;;;;;;;4373005;32;318452;-86
2022/12/26 10:41:26;;;;;;;95.27;57.80;;;;;;;;;;4361849;32;318289;-86
2022/12/26 10:43:53;;;;;;;79.13;51.80;;;;;;;;;;4372444;32;317738;-83
2022/12/26 10:46:38;;;;;;;77.70;48.77;;;;;;;;;;4361234;32;341602;-83
2022/12/26 10:49:08;;;;;;;68.03;38.43;;;;;;;;;;4363300;32;318125;-85
2022/12/26 10:51:36;;;;;;;60.33;36.13;;;;;;;;;;4371260;32;318272;-83
2022/12/26 10:54:04;;;;;;;60.63;33.90;;;;;;;;;;4371833;32;317619;-84
2022/12/26 10:56:31;;;;;;;56.77;34.20;;;;;;;;;;4358752;32;417951;-83
2022/12/26 10:59:01;;;;;;;58.47;37.23;;;;;;;;;;4372618;32;317772;-85
2022/12/26 11:01:38;;;;;;;49.73;34.20;;;;;;;;;;4362918;32;318196;-85
2022/12/26 11:04:06;;;;;;;58.77;36.30;;;;;;;;;;4371695;32;318905;-85
2022/12/26 11:06:37;;;;;;;58.47;37.87;;;;;;;;;;4359035;32;418320;-85
2022/12/26 11:09:05;;;;;;;60.27;40.40;;;;;;;;;;4372874;32;319716;-85
2022/12/26 11:11:45;;;;;;;59.13;39.43;;;;;;;;;;4358267;32;418245;-84
2022/12/26 11:14:30;;;;;;;58.93;38.47;;;;;;;;;;4362498;32;319511;-85
2022/12/26 11:17:01;;;;;;;56.97;38.00;;;;;;;;;;4372450;32;318552;-85
2022/12/26 11:19:30;;;;;;;64.20;35.37;;;;;;;;;;4362745;32;319276;-84
2022/12/26 11:22:20;;;;;;;53.20;35.60;;;;;;;;;;4371291;32;319996;-85
2022/12/26 11:25:01;;;;;;;61.87;38.40;;;;;;;;;;4358511;32;419721;-84
2022/12/26 11:27:28;;;;;;;67.40;39.83;;;;;;;;;;4362487;32;319328;-85
2022/12/26 11:30:15;;;;;;;52.90;35.20;;;;;;;;;;4373426;32;318716;-84
2022/12/26 11:32:46;;;;;;;51.80;36.50;;;;;;;;;;4359647;32;419203;-84
2022/12/26 11:35:17;;;;;;;60.20;39.60;;;;;;;;;;4361794;32;319435;-85
2022/12/26 11:37:47;;;;;;;63.80;40.03;;;;;;;;;;4372761;32;319833;-84
2022/12/26 11:40:18;;;;;;;53.97;34.73;;;;;;;;;;4362491;32;319343;-84
2022/12/26 11:42:50;;;;;;;53.70;35.70;;;;;;;;;;4372214;32;319831;-85
2022/12/26 11:45:22;;;;;;;55.73;33.97;;;;;;;;;;4361730;32;319851;-84
2022/12/26 11:47:51;;;;;;;52.43;36.37;;;;;;;;;;4372458;32;319438;-85
2022/12/26 11:50:20;;;;;;;61.93;39.73;;;;;;;;;;4361869;32;319491;-84
2022/12/26 11:52:52;;;;;;;63.57;41.87;;;;;;;;;;4371219;32;319425;-84
2022/12/26 11:55:29;;;;;;;58.90;37.10;;;;;;;;;;4362636;32;318625;-85
2022/12/26 11:57:58;;;;;;;53.63;31.83;;;;;;;;;;4372539;32;319443;-85
2022/12/26 12:00:26;;;;;;;42.93;28.87;;;;;;;;;;4361493;32;344307;-84
2022/12/26 12:02:55;;;;;;;48.47;31.07;;;;;;;;;;4372199;32;318697;-84
2022/12/26 12:05:36;;;;;;;43.07;27.40;;;;;;;;;;4361319;32;319233;-84
2022/12/26 12:08:24;;;;;;;61.77;35.63;;;;;;;;;;4372362;32;318806;-84
2022/12/26 12:11:04;;;;;;;43.97;28.53;;;;;;;;;;4356005;32;418977;-85
2022/12/26 12:13:44;;;;;;;48.80;29.07;;;;;;;;;;4358783;32;419300;-84
2022/12/26 12:16:24;;;;;;;53.93;33.13;;;;;;;;;;4362512;32;319241;-84
2022/12/26 12:19:00;;;;;;;57.07;32.50;;;;;;;;;;4372353;32;319511;-84
2022/12/26 12:21:38;;;;;;;50.77;33.10;;;;;;;;;;4362417;32;319294;-85
2022/12/26 12:24:32;;;;;;;52.40;34.57;;;;;;;;;;4362099;32;319365;-86
2022/12/26 12:27:11;;;;;;;77.33;47.57;;;;;;;;;;4371618;32;319333;-85
2022/12/26 12:29:56;;;;;;;67.07;43.77;;;;;;;;;;4361172;32;419243;-85
2022/12/26 12:32:28;;;;;;;74.67;45.07;;;;;;;;;;4361731;32;319691;-85
2022/12/26 12:35:23;;;;;;;345.17;173.40;;;;;;;;;;4373018;32;319190;-85
2022/12/26 12:38:13;;;;;;;338.97;171.30;;;;;;;;;;4357712;32;421204;-85
2022/12/26 12:40:49;;;;;;;257.63;133.70;;;;;;;;;;4358748;32;421653;-85
2022/12/26 12:43:22;;;;;;;138.70;77.07;;;;;;;;;;4361647;32;321575;-85
2022/12/26 12:45:56;;;;;;;84.73;52.77;;;;;;;;;;4371691;32;320491;-83
2022/12/26 12:48:44;;;;;;;134.03;74.03;;;;;;;;;;4359952;32;338514;-85
2022/12/26 12:51:23;;;;;;;153.03;84.83;;;;;;;;;;4361305;32;320326;-85
2022/12/26 12:54:02;;;;;;;99.83;59.10;;;;;;;;;;4371786;32;320001;-85
2022/12/26 12:56:37;;;;;;;86.43;54.60;;;;;;;;;;4360752;32;319559;-85
2022/12/26 12:59:18;;;;;;;84.30;54.70;;;;;;;;;;4371910;32;318586;-85
2022/12/26 13:01:49;;;;;;;94.50;58.80;;;;;;;;;;4361514;32;419884;-85
2022/12/26 13:04:21;;;;;;;97.13;57.53;;;;;;;;;;4364365;32;319353;-84
2022/12/26 13:06:53;;;;;;;93.80;52.87;;;;;;;;;;4374224;32;319297;-85
2022/12/26 13:09:22;;;;;;;91.20;54.47;;;;;;;;;;4363360;32;319076;-85
2022/12/26 13:11:53;;;;;;;91.33;54.77;;;;;;;;;;4374255;32;318705;-85
2022/12/26 13:14:24;;;;;;;85.73;51.87;;;;;;;;;;4363143;32;319493;-85
2022/12/26 13:16:57;;;;;;;91.53;56.27;;;;;;;;;;4374078;32;318519;-85
2022/12/26 13:19:26;;;;;;;99.70;62.17;;;;;;;;;;4362077;32;350360;-85
2022/12/26 13:22:01;;;;;;;111.33;70.07;;;;;;;;;;4373846;32;319640;-84
2022/12/26 13:24:32;;;;;;;105.63;67.73;;;;;;;;;;4362730;32;320581;-85
2022/12/26 13:27:04;;;;;;;119.17;69.50;;;;;;;;;;4372856;32;320416;-85
2022/12/26 13:29:39;;;;;;;108.37;67.97;;;;;;;;;;4359743;32;419153;-84
2022/12/26 13:32:16;;;;;;;71.07;47.03;;;;;;;;;;4362945;32;320575;-85
2022/12/26 13:34:44;;;;;;;78.70;44.43;;;;;;;;;;4374190;32;318586;-83
2022/12/26 13:37:44;;;;;;;70.37;47.20;;;;;;;;;;4361088;32;350405;-85
2022/12/26 13:40:17;;;;;;;74.53;48.33;;;;;;;;;;4362671;32;323887;-84
2022/12/26 13:45:56;;;;;;;70.90;46.43;;;;;;;;;;4360750;32;389953;-83
2022/12/26 13:49:06;;;;;;;85.07;49.63;;;;;;;;;;4356167;32;319862;-83
2022/12/26 13:51:51;;;;;;;73.97;45.20;;;;;;;;;;4360787;32;419962;-83
2022/12/26 13:54:19;;;;;;;86.53;56.27;;;;;;;;;;4363602;32;319563;-85
2022/12/26 13:57:05;;;;;;;126.70;76.40;;;;;;;;;;4372659;32;319632;-85
2022/12/26 13:59:39;;;;;;;142.33;88.50;;;;;;;;;;4361137;32;420677;-85
2022/12/26 14:02:25;;;;;;;100.33;60.60;;;;;;;;;;4362948;32;344604;-85
2022/12/26 14:05:01;;;;;;;135.97;71.03;;;;;;;;;;4373589;32;320467;-84
2022/12/26 14:07:35;;;;;;;109.50;65.43;;;;;;;;;;4362367;32;319764;-84
2022/12/26 14:10:10;;;;;;;110.30;67.17;;;;;;;;;;4373548;32;319430;-86
2022/12/26 14:12:54;;;;;;;114.73;70.47;;;;;;;;;;4360347;32;420238;-86
2022/12/26 14:15:28;;;;;;;137.10;75.80;;;;;;;;;;4362321;32;319729;-84
2022/12/26 14:18:07;;;;;;;122.87;73.17;;;;;;;;;;4372781;32;320466;-83
2022/12/26 14:20:42;;;;;;;112.37;68.50;;;;;;;;;;4359712;32;418814;-83
2022/12/26 14:23:30;;;;;;;99.57;62.27;;;;;;;;;;4363145;32;335745;-85
2022/12/26 14:26:03;;;;;;;95.37;59.63;;;;;;;;;;4372778;32;324428;-84
2022/12/26 14:28:46;;;;;;;114.17;64.93;;;;;;;;;;4359238;32;418794;-84
2022/12/26 14:31:26;;;;;;;103.97;67.43;;;;;;;;;;4361086;32;319862;-85
2022/12/26 14:33:58;;;;;;;116.50;72.13;;;;;;;;;;4371931;32;320428;-85
2022/12/26 14:36:36;;;;;;;114.73;71.80;;;;;;;;;;4363101;32;320626;-85
2022/12/26 14:39:21;;;;;;;124.43;75.00;;;;;;;;;;4373278;32;320585;-84
2022/12/26 14:45:44;;;;;;;130.33;80.97;;;;;;;;;;4359164;32;390513;-82
2022/12/26 14:48:40;;;;;;;143.30;92.27;;;;;;;;;;4361751;32;320209;-84
2022/12/26 14:51:28;;;;;;;148.70;90.90;;;;;;;;;;4362211;32;320139;-83
2022/12/26 14:54:20;;;;;;;136.37;86.00;;;;;;;;;;4372816;32;319637;-82
2022/12/26 14:56:48;;;;;;;138.97;83.40;;;;;;;;;;4359508;32;420162;-82
2022/12/26 14:59:29;;;;;;;140.87;86.60;;;;;;;;;;4362776;32;319267;-83
2022/12/26 15:02:11;;;;;;;166.30;98.93;;;;;;;;;;4370484;32;353890;-83
2022/12/26 15:05:11;;;;;;;185.67;104.53;;;;;;;;;;4358546;32;420498;-83
2022/12/26 15:08:05;;;;;;;174.87;102.30;;;;;;;;;;4327365;32;421491;-84
2022/12/26 15:10:59;;;;;;;136.43;80.07;;;;;;;;;;4357278;32;423461;-83
2022/12/26 15:13:51;;;;;;;129.87;70.27;;;;;;;;;;4358377;32;320943;-83
2022/12/26 15:16:49;;;;;;;135.40;71.90;;;;;;;;;;4354541;32;320551;-83
2022/12/26 15:19:58;;;;;;;149.10;84.00;;;;;;;;;;4355875;32;320428;-83
2022/12/26 15:22:52;;;;;;;190.23;100.83;;;;;;;;;;4362096;32;319287;-83
2022/12/26 15:25:52;;;;;;;173.57;97.73;;;;;;;;;;4361461;32;320414;-84
2022/12/26 15:28:42;;;;;;;156.70;90.50;;;;;;;;;;4361444;32;318614;-84
2022/12/26 15:31:26;;;;;;;163.90;92.33;;;;;;;;;;4360990;32;319662;-83
2022/12/26 15:34:02;;;;;;;173.97;103.30;;;;;;;;;;4371269;32;319316;-82
2022/12/26 15:36:42;;;;;;;114.37;69.03;;;;;;;;;;4362144;32;320246;-84
2022/12/26 15:39:22;;;;;;;182.20;102.73;;;;;;;;;;4362544;32;319239;-83
2022/12/26 15:41:57;;;;;;;179.87;104.23;;;;;;;;;;4370869;32;320377;-83
2022/12/26 15:44:32;;;;;;;212.17;110.23;;;;;;;;;;4362171;32;326635;-82
2022/12/26 15:47:13;;;;;;;202.03;101.13;;;;;;;;;;4371742;32;320334;-82
2022/12/26 15:49:56;;;;;;;308.17;164.73;;;;;;;;;;4359418;32;420422;-83
2022/12/26 15:52:36;;;;;;;243.23;154.57;;;;;;;;;;4360330;32;336476;-83
2022/12/26 15:55:18;;;;;;;186.03;119.63;;;;;;;;;;4372196;32;320534;-85
2022/12/26 15:57:53;;;;;;;142.33;86.90;;;;;;;;;;4358143;32;420351;-83
2022/12/26 16:00:23;;;;;;;144.30;90.77;;;;;;;;;;4361170;32;319189;-83
2022/12/26 16:03:06;;;;;;;180.63;112.43;;;;;;;;;;4370874;32;319327;-83
2022/12/26 16:05:43;;;;;;;166.03;101.57;;;;;;;;;;4359210;32;420546;-83
2022/12/26 16:08:48;;;;;;;152.70;97.63;;;;;;;;;;4362215;32;320362;-82
2022/12/26 16:11:18;;;;;;;144.47;91.57;;;;;;;;;;4361863;32;319304;-82
2022/12/26 16:13:54;;;;;;;129.57;79.77;;;;;;;;;;4371926;32;318421;-83
2022/12/26 16:16:27;;;;;;;134.17;79.63;;;;;;;;;;4360883;32;319571;-82
2022/12/26 16:18:53;;;;;;;124.17;72.07;;;;;;;;;;4371801;32;319628;-82
2022/12/26 16:24:11;;;;;;;175.73;100.07;;;;;;;;;;4362342;32;319430;-83
2022/12/26 16:26:42;;;;;;;189.60;110.03;;;;;;;;;;4371523;32;320564;-83
2022/12/26 16:29:14;;;;;;;278.83;158.70;;;;;;;;;;4360007;32;389676;-82
2022/12/26 16:31:41;;;;;;;264.30;151.27;;;;;;;;;;4371857;32;320370;-83
2022/12/26 16:34:14;;;;;;;228.07;130.43;;;;;;;;;;4361106;32;320509;-83
2022/12/26 16:36:42;;;;;;;242.00;135.67;;;;;;;;;;4373372;32;320668;-82
2022/12/26 16:39:11;;;;;;;200.97;117.87;;;;;;;;;;4363084;32;377288;-83
2022/12/26 16:41:58;;;;;;;173.17;100.73;;;;;;;;;;4373350;32;320612;-83
2022/12/26 16:44:30;;;;;;;180.43;101.87;;;;;;;;;;4365130;32;320877;-83
2022/12/26 16:47:00;;;;;;;172.97;99.20;;;;;;;;;;4373657;32;320313;-83
2022/12/26 16:49:29;;;;;;;149.33;94.70;;;;;;;;;;4364935;32;319286;-82